Wallblake, Anguilla

7:32 PM AST on December 02, 2016 (GMT -0400)
The Valley | | Change Station

Elev 92 ft 18.21 °N, 63.05 °W | Updated 17 seconds ago

Partly Cloudy
Partly Cloudy
79.7 °F
Feels Like 83 °F
N
0.0
Wind Variable Wind from North

Today
High -- | Low -- °F
--% Chance of Precip.
Yesterday
High -- | Low -- °F
Precip. -- in
Pressure 29.98 in
Visibility 6.2 miles
Clouds Few 2000 ft
Heat Index 83 °F
Dew Point 72 °F
Humidity 77%
Rainfall 0.00 in
Snow Depth Not available.
6:28 AM 5:35 PM
Waxing Crescent, 11% visible
METAR TNCM 022300Z 08005KT 060V130 9999 FEW020 27/25 Q1015 A2999 NOSIG
Pressure 29.98 in
Visibility 6.2 miles
Clouds Few 2000 ft
Heat Index 83 °F
Dew Point 72 °F
Humidity 77%
Rainfall 0.00 in
Snow Depth Not available.
6:28 AM 5:35 PM
Waxing Crescent, 11% visible
METAR TNCM 022300Z 08005KT 060V130 9999 FEW020 27/25 Q1015 A2999 NOSIG

10-Day Weather Forecast

No radar image for this location.
×

Almanac

Astronomy

Dec. 02, 2016 Rise Set
Actual Time
Civil Twilight
Nautical Twilight
Astronomical Twilight
Moon
Length of Visible Light
Length of Day
Tomorrow will be .
, % of the Moon is Illuminated

Today's Extremes

Country Highs Country Lows

Community

WunderPhotos

Upload Photos

1,955,369 photos uploaded!

WunderBlog® & News

Nearby

Air Quality

  Air Quality AQ Index Pollutant
Not available.

Snow Depth

Station Depth Elevation

Earthquake Activity

City Distance Mag. Time & Date
Minimum magnitude displayed is 2.5.

Coastal Water Temperatures

Place Temperature

Stations

Nearby Weather Stations

Station Location Temp. Windchill Dew Point Humidity Wind Precip. Elev Updated Type